ETEB/QOB METAR and TAF weather

Enter ICAO airport designator
Station Type Date Time Source
ETEB METAR 2018/01/19 16:56 UTC NOAA

ETEB 191656Z AUTO 21004KT 9999 BKN048 01/M02 A2983 RMK AO2 SLP134 T00081019 $


Station Type Date Time Source
ETEB Decoded METAR 2018/01/19 16:56 UTC NOAA

Ansbach / Katterbach, Germany (ETEB) 49-19N 010-38E 476M
Jan 19, 2018 - 11:56 AM EST / 2018.01.19 1656 UTC
Wind: from the SSW (210 degrees) at 5 MPH (4 KT):0
Visibility: greater than 7 mile(s):0
Sky conditions: mostly cloudy
Temperature: 33.4 F (0.8 C)
Windchill: 28 F (-2 C):1
Dew Point: 28.6 F (-1.9 C)
Relative Humidity: 82%
Pressure (altimeter): 29.83 in. Hg (1010 hPa)
ob: ETEB 191656Z AUTO 21004KT 9999 BKN048 01/M02 A2983 RMK AO2 SLP134 T00081019
cycle: 17

Station Type Date Time Source
ETEB TAF 2018/01/19 17:08 UTC NOAA

TAF
AMD ETEB 191707Z 1917/2020 27009KT 9999 SCT020 BKN040 610406 QNH2980INS
BECMG 1920/1921 27009KT 8000 -RASN BKN015 BKN030 610208 QNH2980INS
BECMG 2000/2001 25010G15KT 6000 -SN BKN015 BKN030 610208 QNH2980INS
BECMG 2008/2009 24012KT 9999 NSW BKN015 BKN030 610208 QNH2970INS
BECMG 2012/2013 22012KT 6000 -SN BKN030 610307 QNH2950INS
BECMG 2014/2015 22012KT 6000 -SN BKN015 BKN030 610208 QNH2940INS
BECMG 2017/2018 22012KT 6000 -SN BKN015 BKN030 610208 QNH2935INS TX01/2010Z TNM02/2003Z


Example: see airport list